Terminal Aerodrome Forecast
Issued by NWS

Home | Current Version | Previous Version | Text Only | Print | Product List | Glossary On
Versions: 1 2 3 4 5 6 7 8 9 10 11 12 13 14 15 16 17 18 19 20 21 22 23 24 25 26 27 28 29 30 31 32 33 34 35 36 37 38 39 40 41 42 43 44 45 46
000
FTAK31 PAFA 051751 AAA
TAFATA
TAF AMD
PATA 051751Z 0518/0618 VRB03KT 2SM -SN BR SCT015 BKN025 OVC035
      TEMPO 0518/0522 5SM -SN BR SCT025 OVC050
     FM052200 24003KT 5SM -SN BR SCT020 BKN030 OVC040
     FM060600 25004KT 6SM -SHSN BR BKN030 OVC050
     FM061400 11004KT P6SM VCSH SCT030 OVC060=

USA.gov is the U.S. government's official web portal to all federal, state and local government web resources and services.